This is the latest recevied weather packets stored in our database for station/object N5SNT-2. If no packets are shown the sender has not sent any weather packets the latest 10 day(s).
| Time | Temp. | Humidity | Pressure | Rain* | Wind** | Luminosity | Snow |
|---|---|---|---|---|---|---|---|
| 1777921043 | 26.67° C | 62% | 1015 hPa | 0 mm | - | 1202 W/m² | - |
| 1777920743 | 26.67° C | 62% | 1015 hPa | 0 mm | - | 953 W/m² | - |
| 1777920444 | 26.67° C | 62% | 1015 hPa | 0 mm | - | - | - |
| 1777920145 | 26.11° C | 64% | 1015 hPa | 0 mm | - | 329 W/m² | - |
| 1777919844 | 26.11° C | 65% | 1015 hPa | 0 mm | - | 370 W/m² | - |
| 1777919543 | 26.11° C | 63% | 1015 hPa | 0 mm | - | 438 W/m² | - |
| 1777919243 | 25.56° C | 65% | 1015 hPa | 0 mm | - | 361 W/m² | - |
| 1777918944 | 25.56° C | 64% | 1015 hPa | 0 mm | - | 846 W/m² | - |
| 1777918643 | 26.11° C | 63% | 1015 hPa | 0 mm | - | 340 W/m² | - |
| 1777918343 | 25.56° C | 65% | 1015 hPa | 0 mm | - | 896 W/m² | - |
| 1777918044 | 26.11° C | 64% | 1016 hPa | 0 mm | - | 314 W/m² | - |
| 1777917743 | 25.56° C | 64% | 1016 hPa | 0 mm | - | - | - |
| 1777917444 | 25.56° C | 66% | 1015 hPa | 0 mm | - | 1112 W/m² | - |
| 1777917144 | 25° C | 66% | 1016 hPa | 0 mm | - | 1113 W/m² | - |
| 1777916844 | 25° C | 67% | 1016 hPa | 0 mm | - | 1151 W/m² | - |
| 1777916544 | 25° C | 66% | 1016 hPa | 0 mm | - | 414 W/m² | - |
| 1777916243 | 25° C | 67% | 1016 hPa | 0 mm | - | - | - |
| 1777915945 | 25° C | 68% | 1016 hPa | 0 mm | - | 971 W/m² | - |
| 1777915646 | 24.44° C | 69% | 1016 hPa | 0 mm | - | - | - |
| 1777915343 | 23.89° C | 71% | 1016 hPa | 0 mm | - | - | - |
| 1777915044 | 25° C | 69% | 1016 hPa | 0 mm | - | 953 W/m² | - |
| 1777914743 | 25° C | 69% | 1016 hPa | 0 mm | - | 1083 W/m² | - |
| 1777914443 | 23.89° C | 72% | 1016 hPa | 0 mm | - | 267 W/m² | - |
| 1777914144 | 23.89° C | 73% | 1017 hPa | 0 mm | - | 998 W/m² | - |
| 1777913844 | 23.89° C | 72% | 1017 hPa | 0 mm | - | 358 W/m² | - |
* Rain latest hour (hover to see other rain measurements)
** Current wind speed in m/s (hover to see current wind gust speed)